Huvudsida
METAR-TAF:

METAR-TAF

Flygplatser :

Grenoble-Alpes-Isère flygplats

Grenoble, Frankrike

latitud: 45-22N, longitud: 005-20E, höjd: 384 m

Aktuellt väderrapport

Denna rapport gjordes för 17 minuter sedan, klockan 03:30 UTC
Vind 2 kt varierande vindriktning
Temperatur 10°C
Fuktighet 87%
Tryck 1021 hPa
Sikt 10 km eller mer
Inga moln under 1 500 m eller inga cumulonimbus

METAR: LFLS 120330Z AUTO VRB02KT CAVOK 10/08 Q1021 NOSIG

Tid: 05:47 (03:47 UTC)

Väderprognos

Denna rapport gjordes för 1 timme och 47 minuter sedan, klockan 02:00 UTC
Prognos gäller från 12 kl. 03 UTC till 13 kl. 03 UTC
Vind 2 kt varierande vindriktning
Sikt 10 km eller mer
Inga moln under 1 500 m eller inga cumulonimbus
Blir
från 12 kl. 08 UTC till 12 kl. 10 UTC
Vind 8 kt från nord
Blir
från 12 kl. 20 UTC till 12 kl. 22 UTC
Vind 2 kt varierande vindriktning

TAF: LFLS 120200Z 1203/1303 VRB02KT CAVOK BECMG 1208/1210 36008KT BECMG 1220/1222 VRB02KT

Aktuella väderrapporter och prognoser från 4000 flygplatser (METAR- och TAF-rapporter).

De tillgängliga stationerna syns som gula och röda prickar på kartan.

För musen över prickarna för att se namnen på stationerna.

Klicka sedan för att få väderrapporter och prognoser.

För att ändra kartan: Klicka på de gröna knapparna med ett svart kors på för att zooma in; den gröna knappen med ett streck på för att zooma ut; eller på de gröna pilarna för angränsande kartor.


METAR-TAF: